Imperial, CA

4:29 AM PDT on July 29, 2015 (GMT -0700)
Imperial County | Change Station
CLOSE
Current Station
Airport
Location: Imperial,
Elevation: -56 ft
Nearby Weather Stations

Elev -56 ft 32.83 °N, 115.58 °W | Updated 36 minutes ago

Clear
Clear
86 °F
Feels Like 95 °F
N
9
Wind Variable Wind from ESE

Today
High -- | Low -- °F
--% Chance of Precip.
Yesterday
High -- | Low -- °F
Precip. -- in
5:53 AM 7:43 PM
Waxing Gibbous, 95% visible
Pressure 29.78 in
Visibility 10.0 miles
Clouds Clear
Heat Index 95 °F
Dew Point 75 °F
Humidity 70%
Rainfall 0.00 in
Snow Depth Not available.
UV 0 out of 12
Pollen 5.20 out of 12
Ozone Good
PM2.5 Good
Flu Activity Not available.
METAR KIPL 291053Z AUTO 12008KT 10SM -RA CLR 30/24 A2978 RMK AO2 SLP084 P0000 T03000239

More Conditions Fewer Conditions

Pressure 29.78 in
Visibility 10.0 miles
Clouds Clear
Heat Index 95 °F
Dew Point 75 °F
Humidity 70%
Rainfall 0.00 in
Snow Depth Not available.
UV 0 out of 12
Pollen 5.20 out of 12
Ozone Good
PM2.5 Good
Flu Activity Not available.
METAR KIPL 291053Z AUTO 12008KT 10SM -RA CLR 30/24 A2978 RMK AO2 SLP084 P0000 T03000239

More Conditions Fewer Conditions

10-Day Weather Forecast

Almanac

Astronomy

Jul. 29, 2015 Rise Set
Actual Time 5:53 AM PDT 7:43 PM PDT
Civil Twilight 5:26 AM PDT 8:10 PM PDT
Nautical Twilight 4:53 AM PDT 8:43 PM PDT
Astronomical Twilight 4:19 AM PDT 9:17 PM PDT
Moon 6:14 PM PDT 4:04 AM PDT
Length of Visible Light 14h 43m
Length of Day
13h 49m
Tomorrow will be 1m 27s shorter.
Waxing Gibbous, 95% of the Moon is Illuminated
Today
Waxing Gibbous
Jul 31
Full
Aug 6
Last Quarter
Aug 14
New
Aug 22
First Quarter

Today's Extremes

State Highs State Lows

Community

WunderPhotos

Upload Photos

1,842,075 photos uploaded!

Nearby

Air Quality

  Air Quality AQ Index Pollutant
Yesterday Moderate
PM2.5
Yesterday Good
OZONE
Current Good
PM2.5
Current Good
OZONE
Wednesday Moderate
OZONE
Wednesday Good
PM10
Thursday Moderate
OZONE
Thursday Good
PM10
Friday Moderate
OZONE
Friday Good
PM10
Saturday Moderate
OZONE
Saturday Good
PM10
Sunday Moderate
OZONE
Sunday Good
PM10

Snow Depth

Station Depth Elevation
Virginia Lakes Ridge 1 in 9200 ft
Leavitt Lake 0 in 9400 ft
Leavitt Meadows 1 in 7200 ft
Summit Meadow 1 in 9122 ft
Ebbetts Pass 0 in 8700 ft

Earthquake Activity

City Distance Mag. Time & Date
Ocotillo Wells, California 38 miles 2.7 10:53 AM PDT
2015-07-28
Ocotillo Wells, California 38 miles 2.8 3:01 AM PDT
2015-07-27
Delta, B.C. 37 miles 2.5 4:59 PM PDT
2015-07-26
Minimum magnitude displayed is 2.5.

Coastal Water Temperatures

Place Temperature
No Stations Reporting

Nearby Weather Stations